KSTC/STC METAR and TAF weather

Enter ICAO airport designator
Station Type Date Time Source
KSTC METAR 2022/01/26 07:53 UTC NOAA

KSTC 260753Z AUTO 18003KT 10SM CLR M28/M31 A3035 RMK AO2 SLP322 T12781306 $


Station Type Date Time Source
KSTC Decoded METAR 2022/01/26 07:53 UTC NOAA

ST. CLOUD REGIONAL AIRPORT, MN, United States (KSTC) 45-33N 094-03W
Jan 26, 2022 - 02:53 AM EST / 2022.01.26 0753 UTC
Wind: from the S (180 degrees) at 3 MPH (3 KT):0
Visibility: 10 mile(s):0
Sky conditions: clear
Temperature: -18.0 F (-27.8 C)
Dew Point: -23.1 F (-30.6 C)
Relative Humidity: 76%
Pressure (altimeter): 30.35 in. Hg (1027 hPa)
ob: KSTC 260753Z AUTO 18003KT 10SM CLR M28/M31 A3035 RMK AO2 SLP322 T12781306
cycle: 8

Station Type Date Time Source
KSTC TAF 2022/01/26 06:22 UTC NOAA

TAF KSTC 260520Z 2606/2706 VRB04KT P6SM SKC
FM261300 18007KT P6SM FEW250 WS020/22035KT
FM261700 19015G28KT P6SM BKN180
FM262200 20017G30KT P6SM BKN150
FM270200 22010KT P6SM BKN120

Example: see airport list